Time;durP1;ratioP1;P1;durP2;ratioP2;P2;SDS_P1;SDS_P2;PMS_P1;PMS_P2;Temp;Humidity;BMP_temperature;BMP_pressure;BME280_temperature;BME280_humidity;BME280_pressure;Samples;Min_cycle;Max_cycle;Signal;HPM_P1;HPM_P2
2023/09/02 00:00:24;;;;;;;10.30;9.20;;;13.50;99.90;;;;;;5046256;28;20048;-51
2023/09/02 00:02:49;;;;;;;10.50;9.60;;;13.60;99.90;;;;;;5028114;28;20434;-53
2023/09/02 00:05:15;;;;;;;10.50;9.40;;;13.60;99.90;;;;;;5028794;28;20090;-49
2023/09/02 00:07:40;;;;;;;12.32;9.43;;;13.60;99.90;;;;;;5045802;28;20032;-52
2023/09/02 00:10:08;;;;;;;12.15;10.73;;;13.60;99.90;;;;;;5046106;28;20057;-49
2023/09/02 00:12:34;;;;;;;12.13;10.70;;;13.60;99.90;;;;;;5046004;28;20407;-49
2023/09/02 00:14:59;;;;;;;11.82;10.55;;;13.60;99.90;;;;;;5027943;28;20047;-51
2023/09/02 00:17:25;;;;;;;11.90;10.77;;;13.50;99.90;;;;;;5045515;28;20118;-52
2023/09/02 00:19:51;;;;;;;13.88;10.45;;;13.50;99.90;;;;;;5046185;28;20530;-51
2023/09/02 00:22:16;;;;;;;11.93;10.05;;;13.50;99.90;;;;;;5033287;28;20293;-52
2023/09/02 00:24:43;;;;;;;14.32;10.85;;;13.50;99.90;;;;;;5046205;28;20541;-49
2023/09/02 00:27:09;;;;;;;13.13;10.50;;;13.50;99.90;;;;;;5027690;28;20122;-49
2023/09/02 00:29:35;;;;;;;11.80;10.63;;;13.50;99.90;;;;;;5045321;28;20300;-51
2023/09/02 00:32:00;;;;;;;12.60;10.57;;;13.50;99.90;;;;;;5045603;28;20037;-50
2023/09/02 00:34:26;;;;;;;11.00;9.88;;;13.50;99.90;;;;;;5045337;28;20041;-51
2023/09/02 00:36:52;;;;;;;14.15;11.50;;;13.40;99.90;;;;;;5027738;28;20173;-52
2023/09/02 00:39:18;;;;;;;12.45;11.15;;;13.40;99.90;;;;;;5026652;28;20415;-52
2023/09/02 00:41:48;;;;;;;12.32;10.85;;;13.40;99.90;;;;;;5045575;28;20041;-51
2023/09/02 00:44:14;;;;;;;12.70;11.45;;;13.40;99.90;;;;;;5026894;28;20087;-50
2023/09/02 00:46:40;;;;;;;12.38;10.60;;;13.40;99.90;;;;;;5027309;28;20169;-51
2023/09/02 00:49:06;;;;;;;13.38;10.63;;;13.40;99.90;;;;;;5026603;28;20040;-50
2023/09/02 00:51:31;;;;;;;14.73;11.32;;;13.40;99.90;;;;;;5045245;28;20515;-52
2023/09/02 00:53:57;;;;;;;10.73;9.63;;;13.40;99.90;;;;;;5026767;28;20132;-51
2023/09/02 00:56:27;;;;;;;12.43;11.05;;;13.40;99.90;;;;;;5045041;28;20041;-51
2023/09/02 00:58:57;;;;;;;10.77;9.70;;;13.40;99.90;;;;;;5044470;28;20049;-50
2023/09/02 01:01:23;;;;;;;13.50;11.23;;;13.40;99.90;;;;;;5045471;28;20044;-52
2023/09/02 01:03:49;;;;;;;14.90;10.10;;;13.40;99.90;;;;;;5045105;28;20114;-51
2023/09/02 01:06:14;;;;;;;11.25;10.13;;;13.40;99.90;;;;;;5044888;28;20173;-50
2023/09/02 01:08:40;;;;;;;13.68;12.18;;;13.40;99.90;;;;;;5025610;28;20064;-52
2023/09/02 01:11:06;;;;;;;12.40;10.02;;;13.50;99.90;;;;;;5026777;28;20049;-50
2023/09/02 01:13:32;;;;;;;12.40;11.10;;;13.50;99.90;;;;;;5044883;28;20194;-52
2023/09/02 01:15:58;;;;;;;15.05;11.10;;;13.50;99.90;;;;;;5044947;28;20049;-52
2023/09/02 01:18:24;;;;;;;11.75;9.13;;;13.50;99.90;;;;;;5043839;28;20045;-49
2023/09/02 01:21:20;;;;;;;10.75;9.68;;;13.50;99.90;;;;;;5026847;28;20083;-52
2023/09/02 01:24:12;;;;;;;9.73;8.82;;;13.50;99.90;;;;;;5044975;28;20387;-49
2023/09/02 01:27:09;;;;;;;12.35;9.35;;;13.50;99.90;;;;;;5026489;28;20052;-50
2023/09/02 01:29:40;;;;;;;11.65;9.50;;;13.50;99.90;;;;;;5026119;28;20133;-52
2023/09/02 01:32:07;;;;;;;8.55;7.55;;;13.40;99.90;;;;;;5010328;28;20156;-51
2023/09/02 01:34:34;;;;;;;11.07;10.02;;;13.40;99.90;;;;;;5044733;28;20503;-51
2023/09/02 01:37:02;;;;;;;10.27;9.13;;;13.30;99.90;;;;;;5044365;28;20171;-49
2023/09/02 01:39:30;;;;;;;10.88;9.15;;;13.30;99.90;;;;;;5043335;28;20668;-49
2023/09/02 01:41:57;;;;;;;11.65;9.13;;;13.30;99.90;;;;;;5044293;28;20079;-52
2023/09/02 01:44:24;;;;;;;10.85;9.75;;;13.30;99.90;;;;;;5044037;28;20070;-49
2023/09/02 01:46:51;;;;;;;10.93;9.00;;;13.30;99.90;;;;;;5023827;28;20494;-51
2023/09/02 01:49:16;;;;;;;12.15;9.88;;;13.20;99.90;;;;;;5043513;28;20129;-49
2023/09/02 01:51:43;;;;;;;10.02;9.10;;;13.20;99.90;;;;;;5044094;28;20199;-50
2023/09/02 01:54:08;;;;;;;9.82;8.70;;;13.20;99.90;;;;;;5025960;28;20067;-51
2023/09/02 01:56:35;;;;;;;10.88;9.30;;;13.20;99.90;;;;;;5043222;28;20049;-51
2023/09/02 01:59:01;;;;;;;10.20;9.10;;;13.10;99.90;;;;;;5042952;28;20459;-49
2023/09/02 02:01:26;;;;;;;14.30;10.15;;;13.10;99.90;;;;;;5043972;28;20120;-49
2023/09/02 02:04:01;;;;;;;12.95;11.60;;;13.10;99.90;;;;;;5024218;28;20052;-49
2023/09/02 02:06:30;;;;;;;10.52;9.43;;;13.10;99.90;;;;;;5024092;28;20042;-53
2023/09/02 02:09:02;;;;;;;11.70;10.27;;;13.10;99.90;;;;;;5023286;28;20865;-50
2023/09/02 02:11:29;;;;;;;11.63;10.52;;;13.10;99.90;;;;;;5042143;28;20057;-51
2023/09/02 02:14:01;;;;;;;12.38;10.60;;;13.10;99.90;;;;;;5042897;28;20048;-51
2023/09/02 02:16:27;;;;;;;12.13;10.73;;;13.10;99.90;;;;;;5042539;28;20048;-48
2023/09/02 02:18:53;;;;;;;11.80;10.60;;;13.10;99.90;;;;;;5024128;28;20072;-50
2023/09/02 02:21:18;;;;;;;12.30;11.10;;;13.10;99.90;;;;;;5008294;28;20049;-49
2023/09/02 02:23:44;;;;;;;13.98;11.55;;;13.10;99.90;;;;;;5043032;28;20303;-50
2023/09/02 02:26:09;;;;;;;14.00;11.50;;;13.20;99.90;;;;;;5024337;28;20134;-49
2023/09/02 02:28:37;;;;;;;13.45;11.55;;;13.20;99.90;;;;;;5042322;28;20383;-52
2023/09/02 02:31:03;;;;;;;14.50;11.75;;;13.10;99.90;;;;;;5043053;28;20499;-49
2023/09/02 02:33:29;;;;;;;14.02;11.48;;;13.10;99.90;;;;;;5042859;28;20048;-49
2023/09/02 02:35:54;;;;;;;14.10;12.70;;;13.10;99.90;;;;;;5042726;28;20113;-50
2023/09/02 02:38:20;;;;;;;15.07;13.43;;;13.10;99.90;;;;;;5042301;28;20037;-50
2023/09/02 02:40:46;;;;;;;14.60;12.07;;;13.20;99.90;;;;;;5042615;28;20127;-52
2023/09/02 02:43:11;;;;;;;13.77;12.23;;;13.20;99.90;;;;;;5024208;28;20459;-51
2023/09/02 02:45:37;;;;;;;15.27;12.63;;;13.20;99.90;;;;;;5040597;28;20041;-51
2023/09/02 02:48:03;;;;;;;13.70;12.30;;;13.20;99.90;;;;;;5020241;28;20507;-53
2023/09/02 02:50:28;;;;;;;14.85;12.73;;;13.20;99.90;;;;;;5007678;28;20060;-52
2023/09/02 02:52:54;;;;;;;13.90;12.52;;;13.20;99.90;;;;;;5024241;28;20033;-53
2023/09/02 02:55:19;;;;;;;15.00;13.45;;;13.30;99.90;;;;;;5042556;28;20119;-52
2023/09/02 02:57:45;;;;;;;18.42;13.05;;;13.30;99.90;;;;;;5041945;28;20297;-50
2023/09/02 03:00:11;;;;;;;18.00;12.60;;;13.30;99.90;;;;;;5023897;28;20488;-50
2023/09/02 03:02:37;;;;;;;14.60;13.07;;;13.20;99.90;;;;;;5042473;28;20156;-51
2023/09/02 03:05:03;;;;;;;14.68;13.27;;;13.20;99.90;;;;;;5042238;28;20037;-52
2023/09/02 03:07:29;;;;;;;14.27;12.95;;;13.30;99.90;;;;;;5041227;28;20484;-52
2023/09/02 03:09:54;;;;;;;14.73;12.82;;;13.30;99.90;;;;;;5041866;28;20107;-49
2023/09/02 03:12:20;;;;;;;14.60;11.52;;;13.30;99.90;;;;;;5042505;28;20069;-50
2023/09/02 03:14:49;;;;;;;13.15;11.52;;;13.20;99.90;;;;;;5042097;28;20096;-51
2023/09/02 03:17:20;;;;;;;13.20;11.80;;;13.30;99.90;;;;;;5041426;28;20555;-49
2023/09/02 03:19:47;;;;;;;12.05;10.95;;;13.30;99.90;;;;;;5042022;28;20045;-51
2023/09/02 03:22:13;;;;;;;13.38;11.98;;;13.20;99.90;;;;;;5023888;28;20045;-51
2023/09/02 03:24:38;;;;;;;13.40;12.00;;;13.30;99.90;;;;;;5042225;28;20033;-48
2023/09/02 03:27:04;;;;;;;13.80;12.40;;;13.30;99.90;;;;;;5042167;28;20044;-52
2023/09/02 03:29:30;;;;;;;15.60;12.98;;;13.20;99.90;;;;;;5007263;28;20379;-50
2023/09/02 03:31:56;;;;;;;14.25;11.98;;;13.20;99.90;;;;;;5042085;28;20040;-51
2023/09/02 03:34:21;;;;;;;14.65;13.02;;;13.30;99.90;;;;;;5042090;28;20064;-48
2023/09/02 03:36:47;;;;;;;15.55;13.63;;;13.30;99.90;;;;;;5041980;28;20128;-50
2023/09/02 03:39:13;;;;;;;13.75;11.88;;;13.30;99.90;;;;;;5041212;28;20040;-51
2023/09/02 03:41:40;;;;;;;13.27;11.98;;;13.30;99.90;;;;;;5042384;28;20040;-49
2023/09/02 03:44:05;;;;;;;12.95;11.63;;;13.20;99.90;;;;;;5042210;28;20132;-50
2023/09/02 03:46:31;;;;;;;14.18;12.68;;;13.20;99.90;;;;;;5014647;28;20068;-50
2023/09/02 03:48:57;;;;;;;14.27;12.88;;;13.20;99.90;;;;;;5022660;28;20041;-50
2023/09/02 03:51:22;;;;;;;13.23;11.93;;;13.20;99.90;;;;;;5041840;28;20049;-50
2023/09/02 03:53:48;;;;;;;14.23;12.80;;;13.20;99.90;;;;;;5042111;28;20052;-52
2023/09/02 03:56:14;;;;;;;15.65;13.88;;;13.20;99.90;;;;;;5023380;28;20439;-52
2023/09/02 03:58:39;;;;;;;14.55;13.20;;;13.20;99.90;;;;;;5041383;28;20492;-51
2023/09/02 04:01:05;;;;;;;13.90;12.55;;;13.30;99.90;;;;;;5041990;28;20033;-51
2023/09/02 04:03:36;;;;;;;15.38;13.65;;;13.30;99.90;;;;;;5023205;28;20049;-49
2023/09/02 04:06:02;;;;;;;14.30;11.88;;;13.30;99.90;;;;;;5041639;28;20087;-49
2023/09/02 04:08:28;;;;;;;14.13;12.07;;;13.30;99.90;;;;;;5023075;28;20099;-50
2023/09/02 04:10:55;;;;;;;13.13;11.82;;;13.30;99.90;;;;;;5042367;28;20793;-53
2023/09/02 04:13:23;;;;;;;13.50;11.73;;;13.10;99.90;;;;;;5042680;28;20126;-52
2023/09/02 04:15:48;;;;;;;13.05;11.82;;;13.10;99.90;;;;;;5042453;28;20056;-52
2023/09/02 04:18:14;;;;;;;15.40;12.18;;;13.10;99.90;;;;;;5041902;28;20037;-52
2023/09/02 04:20:41;;;;;;;14.68;12.50;;;13.00;99.90;;;;;;5026342;28;20119;-52
2023/09/02 04:23:06;;;;;;;13.52;12.13;;;13.00;99.90;;;;;;5045251;28;20112;-52
2023/09/02 04:25:32;;;;;;;15.20;13.27;;;12.90;99.90;;;;;;5045633;28;20045;-51
2023/09/02 04:27:58;;;;;;;15.50;13.95;;;12.90;99.90;;;;;;5045023;28;20043;-49
2023/09/02 04:30:26;;;;;;;17.38;15.57;;;12.90;99.90;;;;;;5027950;28;20123;-48
2023/09/02 04:32:52;;;;;;;14.57;13.10;;;12.90;99.90;;;;;;5045280;28;20044;-51
2023/09/02 04:35:17;;;;;;;15.32;13.40;;;12.90;99.90;;;;;;5045718;28;20040;-49
2023/09/02 04:37:43;;;;;;;15.50;13.13;;;12.90;99.90;;;;;;5027081;28;20068;-49
2023/09/02 04:40:10;;;;;;;14.18;12.75;;;12.90;99.90;;;;;;5045428;28;20041;-49
2023/09/02 04:42:40;;;;;;;15.63;12.32;;;12.90;99.90;;;;;;5045757;28;20542;-51
2023/09/02 04:45:06;;;;;;;14.57;12.98;;;12.90;99.90;;;;;;5027650;28;20140;-48
2023/09/02 04:47:32;;;;;;;13.95;12.30;;;12.80;99.90;;;;;;5042587;28;20514;-48
2023/09/02 04:49:57;;;;;;;13.75;12.23;;;12.80;99.90;;;;;;5027840;28;20052;-51
2023/09/02 04:52:23;;;;;;;16.17;12.68;;;12.90;99.90;;;;;;5045868;28;20488;-49
2023/09/02 04:54:48;;;;;;;15.95;12.60;;;12.90;99.90;;;;;;5045693;28;20444;-49
2023/09/02 04:57:14;;;;;;;18.13;14.07;;;12.80;99.90;;;;;;5026601;28;20057;-52
2023/09/02 04:59:40;;;;;;;14.45;12.35;;;12.90;99.90;;;;;;5045078;28;20041;-48
2023/09/02 05:02:05;;;;;;;15.02;13.43;;;12.90;99.90;;;;;;5045426;28;20527;-49
2023/09/02 05:04:31;;;;;;;14.02;12.65;;;12.90;99.90;;;;;;5044856;28;20045;-51
2023/09/02 05:06:57;;;;;;;15.05;12.30;;;12.90;99.90;;;;;;5026410;28;20049;-52
2023/09/02 05:09:23;;;;;;;17.38;13.82;;;12.90;99.90;;;;;;5026202;28;20523;-52
2023/09/02 05:11:48;;;;;;;15.60;14.05;;;12.80;99.90;;;;;;5043291;28;20103;-49
2023/09/02 05:14:14;;;;;;;15.80;14.20;;;12.80;99.90;;;;;;5026656;28;20116;-49
2023/09/02 05:16:40;;;;;;;15.18;13.68;;;12.80;99.90;;;;;;5026609;28;20526;-52
2023/09/02 05:19:05;;;;;;;15.88;14.02;;;12.80;99.90;;;;;;5044136;28;20037;-50
2023/09/02 05:21:31;;;;;;;15.57;13.93;;;12.90;99.90;;;;;;5026593;28;20094;-49
2023/09/02 05:23:56;;;;;;;14.88;13.38;;;12.90;99.90;;;;;;5009919;28;20052;-49
2023/09/02 05:26:22;;;;;;;15.95;12.82;;;13.00;99.90;;;;;;5026663;28;20049;-48
2023/09/02 05:28:48;;;;;;;18.65;13.52;;;12.90;99.90;;;;;;5044304;28;20490;-49
2023/09/02 05:31:13;;;;;;;15.57;13.77;;;13.00;99.90;;;;;;5044744;28;20499;-48
2023/09/02 05:33:39;;;;;;;15.10;13.23;;;13.00;99.90;;;;;;5044182;28;20307;-49
2023/09/02 05:36:05;;;;;;;15.50;12.80;;;13.10;99.90;;;;;;5027048;28;20994;-50
2023/09/02 05:38:30;;;;;;;14.98;13.40;;;13.10;99.90;;;;;;5025807;28;20037;-51
2023/09/02 05:40:56;;;;;;;15.40;13.20;;;13.30;99.90;;;;;;5044398;28;20502;-52
2023/09/02 05:43:24;;;;;;;14.20;12.75;;;13.60;99.90;;;;;;5044269;28;20605;-51
2023/09/02 05:45:50;;;;;;;14.45;12.52;;;13.80;99.90;;;;;;5006293;28;20081;-51
2023/09/02 05:48:16;;;;;;;14.55;12.30;;;14.40;99.90;;;;;;5020417;28;20479;-50
2023/09/02 05:50:42;;;;;;;13.38;11.48;;;14.90;99.90;;;;;;5044531;28;20063;-49
2023/09/02 05:53:08;;;;;;;17.60;13.95;;;15.10;99.90;;;;;;5043921;28;20056;-50
2023/09/02 05:55:34;;;;;;;14.65;12.20;;;15.30;99.90;;;;;;5026007;28;20045;-49
2023/09/02 05:57:59;;;;;;;12.77;11.45;;;15.80;99.90;;;;;;5024841;28;20051;-50
2023/09/02 06:00:25;;;;;;;16.67;13.30;;;16.40;99.90;;;;;;5044427;28;20608;-51
2023/09/02 06:02:51;;;;;;;13.15;11.23;;;17.00;99.90;;;;;;5043760;28;20210;-51
2023/09/02 06:05:17;;;;;;;13.82;12.43;;;17.50;99.90;;;;;;5043968;28;20287;-52
2023/09/02 06:07:42;;;;;;;11.90;10.80;;;17.90;99.90;;;;;;5025147;28;20044;-52
2023/09/02 06:10:08;;;;;;;11.98;10.82;;;18.20;99.90;;;;;;5043329;28;20396;-52
2023/09/02 06:12:34;;;;;;;12.38;11.27;;;18.30;99.90;;;;;;5025421;28;20049;-52
2023/09/02 06:15:00;;;;;;;12.77;11.48;;;18.40;99.90;;;;;;5025843;28;20044;-52
2023/09/02 06:17:30;;;;;;;11.57;10.38;;;18.80;99.90;;;;;;5024987;28;20570;-51
2023/09/02 06:19:57;;;;;;;12.10;10.90;;;19.10;99.90;;;;;;5044032;28;20048;-52
2023/09/02 06:22:23;;;;;;;13.43;12.05;;;19.60;99.90;;;;;;5043597;28;20045;-53
2023/09/02 06:24:48;;;;;;;12.48;11.18;;;19.90;99.90;;;;;;5044210;28;20060;-52
2023/09/02 06:27:14;;;;;;;12.93;11.35;;;20.10;99.90;;;;;;5042728;28;20127;-53
2023/09/02 06:29:43;;;;;;;13.30;12.00;;;20.30;99.90;;;;;;5025537;28;20044;-51
2023/09/02 06:32:09;;;;;;;12.85;11.50;;;20.50;99.90;;;;;;5043457;28;20047;-52
2023/09/02 06:34:34;;;;;;;12.77;11.48;;;20.70;99.90;;;;;;5044151;28;20045;-53
2023/09/02 06:37:00;;;;;;;15.32;12.40;;;20.80;99.90;;;;;;5042918;28;20119;-53
2023/09/02 06:39:26;;;;;;;13.82;12.45;;;21.00;99.90;;;;;;5025328;28;20520;-53
2023/09/02 06:41:51;;;;;;;14.45;13.05;;;21.20;99.90;;;;;;5043124;28;20120;-53
2023/09/02 06:44:17;;;;;;;13.45;12.20;;;21.70;99.90;;;;;;5024954;28;20067;-53
2023/09/02 06:46:43;;;;;;;14.02;12.80;;;22.00;99.90;;;;;;5015869;28;20045;-53
2023/09/02 06:49:08;;;;;;;13.18;11.85;;;22.40;99.90;;;;;;5023787;28;20113;-54
2023/09/02 06:51:34;;;;;;;15.20;13.27;;;22.90;99.90;;;;;;5025116;28;20071;-52
2023/09/02 06:54:00;;;;;;;14.23;12.88;;;23.20;99.90;;;;;;5043041;28;20037;-53
2023/09/02 06:56:25;;;;;;;14.55;13.13;;;23.10;99.90;;;;;;5042434;28;20146;-53
2023/09/02 06:58:51;;;;;;;15.60;13.95;;;23.60;99.90;;;;;;5024198;28;20036;-54
2023/09/02 07:01:24;;;;;;;13.88;12.65;;;23.80;99.90;;;;;;5042815;28;20111;-53
2023/09/02 07:03:50;;;;;;;20.45;14.70;;;24.10;99.90;;;;;;5023405;28;20124;-54
2023/09/02 07:06:16;;;;;;;15.23;13.63;;;24.10;99.90;;;;;;5024640;28;20056;-53
2023/09/02 07:08:43;;;;;;;17.05;15.55;;;24.40;99.90;;;;;;5023709;28;20059;-53
2023/09/02 07:11:09;;;;;;;17.35;15.50;;;24.40;99.90;;;;;;5042101;28;20056;-54
2023/09/02 07:13:36;;;;;;;18.00;16.25;;;23.90;99.90;;;;;;5041685;28;20047;-53
2023/09/02 07:16:03;;;;;;;16.90;15.30;;;23.30;99.90;;;;;;5041858;28;20164;-53
2023/09/02 07:18:28;;;;;;;18.85;15.85;;;23.00;99.90;;;;;;5030047;28;20049;-53
2023/09/02 07:21:02;;;;;;;18.60;16.70;;;22.50;99.90;;;;;;5041715;28;20037;-52
2023/09/02 07:23:28;;;;;;;19.27;17.17;;;22.00;99.90;;;;;;5023553;28;20496;-54
2023/09/02 07:25:56;;;;;;;19.17;17.38;;;21.90;99.90;;;;;;5041531;28;20106;-53
2023/09/02 07:28:22;;;;;;;18.25;16.42;;;21.60;99.90;;;;;;5041692;28;20033;-54
2023/09/02 07:30:48;;;;;;;19.83;17.83;;;21.60;99.90;;;;;;5042701;28;20395;-54
2023/09/02 07:33:13;;;;;;;20.95;18.75;;;21.70;99.90;;;;;;5024301;28;20506;-54
2023/09/02 07:35:39;;;;;;;19.33;16.90;;;21.60;99.90;;;;;;5042391;28;20574;-54
2023/09/02 07:38:05;;;;;;;19.95;18.05;;;21.70;99.90;;;;;;5023647;28;20460;-54
2023/09/02 07:40:31;;;;;;;21.02;18.92;;;21.70;99.90;;;;;;5042381;28;20045;-54
2023/09/02 07:43:00;;;;;;;20.52;18.55;;;21.50;99.90;;;;;;5023859;28;20500;-54
2023/09/02 07:45:25;;;;;;;23.40;19.33;;;21.60;99.90;;;;;;5041954;28;20098;-54
2023/09/02 07:47:51;;;;;;;22.20;19.85;;;21.70;99.90;;;;;;5033538;28;20511;-54
2023/09/02 07:50:17;;;;;;;22.05;19.73;;;21.80;99.90;;;;;;5040536;28;20448;-54
2023/09/02 07:52:42;;;;;;;21.85;19.58;;;21.70;99.90;;;;;;5024545;28;20497;-54
2023/09/02 07:55:08;;;;;;;21.50;19.27;;;21.70;99.90;;;;;;5043322;28;20045;-54
2023/09/02 07:57:33;;;;;;;21.85;19.65;;;21.70;99.90;;;;;;5045648;28;20036;-54
2023/09/02 08:00:00;;;;;;;20.60;18.40;;;21.70;99.90;;;;;;5045672;28;20061;-54
2023/09/02 08:02:26;;;;;;;21.75;19.35;;;21.70;99.90;;;;;;5045837;28;20056;-54
2023/09/02 08:04:51;;;;;;;21.10;18.88;;;21.60;99.90;;;;;;5027754;28;20041;-54
2023/09/02 08:07:17;;;;;;;19.85;17.80;;;21.70;99.90;;;;;;5027375;28;20128;-54
2023/09/02 08:09:42;;;;;;;21.13;18.75;;;21.70;99.90;;;;;;5027266;28;20057;-54
2023/09/02 08:12:09;;;;;;;22.00;19.73;;;21.80;99.90;;;;;;5046152;28;20045;-54
2023/09/02 08:14:34;;;;;;;19.48;17.52;;;21.60;99.90;;;;;;5045825;28;20111;-53
2023/09/02 08:17:00;;;;;;;22.65;19.30;;;21.70;99.90;;;;;;5045320;28;20037;-54
2023/09/02 08:19:25;;;;;;;19.92;17.90;;;21.70;99.90;;;;;;5027428;28;20056;-56
2023/09/02 08:21:51;;;;;;;22.27;19.25;;;21.80;99.90;;;;;;5045949;28;20121;-54
2023/09/02 08:24:17;;;;;;;20.58;18.48;;;21.90;99.90;;;;;;5011013;28;20862;-54
2023/09/02 08:26:42;;;;;;;20.63;18.65;;;21.90;99.90;;;;;;5044946;28;20103;-55
2023/09/02 08:29:08;;;;;;;20.45;18.27;;;21.90;99.90;;;;;;5026915;28;20037;-54
2023/09/02 08:31:34;;;;;;;20.45;18.25;;;21.90;99.90;;;;;;5011242;28;20132;-55
2023/09/02 08:34:00;;;;;;;21.80;19.52;;;22.00;99.90;;;;;;5045528;28;20029;-55
2023/09/02 08:36:25;;;;;;;21.13;19.00;;;22.00;99.90;;;;;;5027255;28;20749;-54
2023/09/02 08:38:52;;;;;;;19.45;17.00;;;22.00;99.90;;;;;;5044738;28;20059;-54
2023/09/02 08:41:29;;;;;;;22.20;17.83;;;21.90;99.90;;;;;;5027676;28;20041;-56
2023/09/02 08:43:59;;;;;;;20.42;17.38;;;21.90;99.90;;;;;;5027084;28;20589;-54
2023/09/02 08:46:26;;;;;;;21.10;18.90;;;22.00;99.90;;;;;;5036691;28;20060;-54
2023/09/02 08:48:55;;;;;;;23.23;20.13;;;22.00;99.90;;;;;;5031206;28;20056;-54
2023/09/02 08:51:22;;;;;;;22.42;19.92;;;22.00;99.90;;;;;;5027006;28;20041;-55
2023/09/02 08:53:50;;;;;;;23.55;21.15;;;21.90;99.90;;;;;;5044995;28;20053;-54
2023/09/02 08:56:16;;;;;;;19.35;17.27;;;21.90;99.90;;;;;;5045156;28;20060;-55
2023/09/02 08:58:42;;;;;;;21.27;18.92;;;21.90;99.90;;;;;;5044575;28;20041;-55
2023/09/02 09:01:09;;;;;;;20.20;18.08;;;21.90;99.90;;;;;;5044964;28;20053;-55
2023/09/02 09:03:36;;;;;;;22.00;19.73;;;22.00;99.90;;;;;;5045523;28;20117;-55
2023/09/02 09:06:09;;;;;;;23.15;19.80;;;22.10;99.90;;;;;;5044289;28;20110;-55
2023/09/02 09:08:35;;;;;;;19.95;17.98;;;22.30;99.90;;;;;;5044322;28;20053;-55
2023/09/02 09:11:04;;;;;;;22.73;19.80;;;22.40;99.90;;;;;;5026760;28;20107;-55
2023/09/02 09:13:30;;;;;;;22.08;19.80;;;22.40;99.90;;;;;;5026650;28;20098;-55
2023/09/02 09:15:57;;;;;;;20.40;18.35;;;22.60;99.90;;;;;;5044478;28;20045;-55
2023/09/02 09:18:24;;;;;;;22.98;19.33;;;22.60;99.90;;;;;;5025945;28;20041;-55
2023/09/02 09:20:50;;;;;;;18.00;16.25;;;22.60;99.90;;;;;;5010111;28;20481;-55
2023/09/02 09:23:15;;;;;;;19.70;17.60;;;22.50;99.90;;;;;;5044732;28;20044;-55
2023/09/02 09:25:42;;;;;;;23.10;18.15;;;22.60;99.90;;;;;;5044576;28;20454;-55
2023/09/02 09:28:12;;;;;;;21.30;17.83;;;22.80;99.90;;;;;;4989577;28;20136;-54
2023/09/02 09:30:38;;;;;;;20.50;16.65;;;23.00;99.90;;;;;;5038200;28;20499;-55
2023/09/02 09:33:07;;;;;;;18.27;16.48;;;23.10;99.90;;;;;;5009371;28;20300;-54
2023/09/02 09:35:33;;;;;;;20.80;17.83;;;23.30;99.90;;;;;;5026011;28;20084;-55
2023/09/02 09:38:00;;;;;;;19.73;17.65;;;23.30;99.90;;;;;;5043171;28;20049;-55
2023/09/02 09:40:38;;;;;;;21.13;19.00;;;23.30;99.90;;;;;;5043615;28;20044;-55
2023/09/02 09:43:16;;;;;;;20.67;18.48;;;23.10;99.90;;;;;;5025940;28;20036;-55
2023/09/02 09:45:51;;;;;;;19.13;17.23;;;22.90;99.90;;;;;;5040661;28;20049;-54
2023/09/02 09:48:17;;;;;;;19.38;16.95;;;22.90;99.90;;;;;;5030464;28;20075;-55
2023/09/02 09:50:42;;;;;;;18.48;16.67;;;22.70;99.90;;;;;;5043888;28;20128;-55
2023/09/02 09:53:09;;;;;;;23.40;17.77;;;22.80;99.90;;;;;;5043794;28;20528;-54
2023/09/02 09:55:36;;;;;;;20.08;18.13;;;22.80;99.90;;;;;;5044201;28;20045;-56
2023/09/02 09:58:03;;;;;;;20.27;16.38;;;22.80;99.90;;;;;;5043114;28;20471;-55
2023/09/02 10:00:29;;;;;;;19.05;16.98;;;22.80;99.90;;;;;;5025476;28;20099;-55
2023/09/02 10:02:56;;;;;;;19.27;16.83;;;22.90;99.90;;;;;;5043359;28;20044;-55
2023/09/02 10:05:33;;;;;;;16.77;15.02;;;22.90;99.90;;;;;;5025334;28;20045;-55
2023/09/02 10:08:00;;;;;;;21.42;17.42;;;23.00;99.90;;;;;;5043138;28;20045;-54
2023/09/02 10:10:30;;;;;;;17.40;15.60;;;23.10;99.90;;;;;;5043245;28;20049;-55
2023/09/02 10:12:58;;;;;;;18.80;14.57;;;23.30;99.90;;;;;;5009002;28;20083;-55
2023/09/02 10:15:25;;;;;;;17.13;15.32;;;23.50;99.90;;;;;;5025406;28;20048;-55
2023/09/02 10:17:58;;;;;;;18.52;13.68;;;23.60;99.90;;;;;;5041414;28;20102;-54
2023/09/02 10:20:29;;;;;;;15.23;13.38;;;23.80;99.90;;;;;;5025377;28;20041;-55
2023/09/02 10:23:08;;;;;;;18.25;14.70;;;23.90;99.90;;;;;;5008931;28;20141;-54
2023/09/02 10:25:48;;;;;;;17.08;13.93;;;23.60;99.90;;;;;;5043223;28;20124;-54
2023/09/02 10:28:30;;;;;;;16.08;14.38;;;23.10;99.90;;;;;;5042490;28;20191;-55
2023/09/02 10:30:59;;;;;;;17.48;13.77;;;22.80;99.90;;;;;;5008672;28;20041;-54
2023/09/02 10:33:34;;;;;;;15.32;13.10;;;22.60;99.90;;;;;;5025190;28;20045;-55
2023/09/02 10:36:03;;;;;;;14.25;12.85;;;22.20;99.90;;;;;;5043256;28;20080;-55
2023/09/02 10:38:33;;;;;;;14.95;12.07;;;22.00;99.90;;;;;;5024187;28;20090;-54
2023/09/02 10:41:28;;;;;;;15.07;13.55;;;21.90;99.90;;;;;;5043132;28;20028;-54
2023/09/02 10:43:55;;;;;;;14.93;12.90;;;21.90;99.90;;;;;;5016795;28;20534;-54
2023/09/02 10:46:21;;;;;;;14.77;12.30;;;21.90;99.90;;;;;;5034869;28;20091;-54
2023/09/02 10:48:48;;;;;;;12.90;11.48;;;22.10;99.90;;;;;;5041407;28;20455;-55
2023/09/02 10:51:14;;;;;;;13.20;11.82;;;22.40;99.90;;;;;;5024740;28;20049;-55
2023/09/02 10:53:51;;;;;;;15.85;13.20;;;22.60;99.90;;;;;;5042954;28;20047;-54
2023/09/02 10:56:36;;;;;;;14.57;12.65;;;22.80;99.90;;;;;;5042591;28;20458;-54
2023/09/02 10:59:06;;;;;;;14.77;13.20;;;23.00;99.90;;;;;;5042989;28;20398;-55
2023/09/02 11:01:43;;;;;;;13.10;11.73;;;23.00;99.90;;;;;;5043133;28;20033;-54
2023/09/02 11:04:08;;;;;;;13.85;12.45;;;22.80;99.90;;;;;;5042927;28;20044;-54
2023/09/02 11:06:34;;;;;;;12.43;10.80;;;22.40;99.90;;;;;;5042334;28;20045;-54
2023/09/02 11:09:00;;;;;;;11.35;10.23;;;22.20;99.90;;;;;;5043018;28;20564;-54
2023/09/02 11:12:06;;;;;;;12.98;10.18;;;22.30;99.90;;;;;;5042438;28;20123;-54
2023/09/02 11:14:32;;;;;;;12.80;9.98;;;22.30;99.90;;;;;;5042343;28;20044;-54
2023/09/02 11:17:35;;;;;;;13.18;11.43;;;22.40;99.90;;;;;;5041701;28;20045;-54
2023/09/02 11:20:03;;;;;;;13.65;11.63;;;22.60;99.90;;;;;;5031661;28;20056;-54
2023/09/02 11:22:55;;;;;;;12.13;10.93;;;22.80;99.90;;;;;;5042755;28;20040;-54
2023/09/02 11:25:42;;;;;;;11.68;10.48;;;23.00;99.90;;;;;;5042560;28;20455;-54
2023/09/02 11:28:16;;;;;;;11.48;10.27;;;23.20;99.90;;;;;;5030693;28;20053;-54
2023/09/02 11:31:00;;;;;;;11.48;10.02;;;23.20;99.90;;;;;;5046300;28;20049;-54
2023/09/02 11:33:26;;;;;;;11.02;9.80;;;23.00;99.90;;;;;;5039169;28;20850;-54
2023/09/02 11:35:52;;;;;;;11.88;9.43;;;22.90;99.90;;;;;;5046467;28;20075;-54
2023/09/02 11:38:19;;;;;;;11.73;9.20;;;23.00;99.90;;;;;;5045708;28;20404;-54
2023/09/02 11:40:46;;;;;;;10.65;9.50;;;23.00;99.90;;;;;;5046661;28;20147;-54
2023/09/02 11:43:18;;;;;;;9.48;8.40;;;23.10;99.90;;;;;;5046251;28;20040;-54
2023/09/02 11:45:45;;;;;;;9.35;8.20;;;23.10;99.90;;;;;;5025515;28;20095;-54
2023/09/02 11:48:11;;;;;;;9.15;8.25;;;23.00;99.90;;;;;;5025484;28;20375;-55
2023/09/02 11:50:40;;;;;;;9.73;8.77;;;23.10;99.90;;;;;;5045389;28;20044;-54
2023/09/02 11:53:06;;;;;;;12.85;8.32;;;23.20;99.90;;;;;;5046389;28;20048;-54
2023/09/02 11:55:31;;;;;;;9.05;8.23;;;23.20;99.90;;;;;;5046474;28;20687;-55
2023/09/02 11:58:05;;;;;;;9.05;7.88;;;23.30;99.90;;;;;;5045816;28;20045;-55
2023/09/02 12:00:30;;;;;;;10.45;8.10;;;23.20;99.90;;;;;;5011706;28;20083;-55
2023/09/02 12:02:59;;;;;;;10.23;7.75;;;23.10;99.90;;;;;;5043832;28;20033;-55
2023/09/02 12:05:25;;;;;;;9.70;7.88;;;23.10;99.90;;;;;;5043479;28;20567;-54
2023/09/02 12:07:51;;;;;;;9.18;6.65;;;23.20;99.90;;;;;;5044626;28;20110;-55
2023/09/02 12:10:17;;;;;;;7.90;6.65;;;23.20;99.90;;;;;;5044990;28;20060;-55
2023/09/02 12:12:48;;;;;;;9.02;6.63;;;23.00;99.90;;;;;;5043205;28;20040;-55
2023/09/02 12:15:16;;;;;;;10.60;6.65;;;22.90;99.90;;;;;;5030859;28;20183;-54
2023/09/02 12:17:42;;;;;;;7.72;6.38;;;22.60;99.90;;;;;;5029455;28;20131;-55
2023/09/02 12:20:11;;;;;;;8.32;6.40;;;22.60;99.90;;;;;;5045440;28;20582;-54
2023/09/02 12:22:37;;;;;;;9.82;6.53;;;22.60;99.90;;;;;;5044882;28;20033;-55
2023/09/02 12:25:13;;;;;;;6.50;5.25;;;22.70;99.90;;;;;;5033389;28;20179;-54
2023/09/02 12:27:40;;;;;;;8.30;5.95;;;22.90;99.90;;;;;;5043369;28;20055;-54
2023/09/02 12:30:06;;;;;;;6.45;4.93;;;23.00;99.90;;;;;;5045460;28;20419;-54